createdAt,value
2022-09-01T00:00:23.738Z,1.40
2022-09-01T00:01:23.722Z,1.30
2022-09-01T00:02:23.755Z,1.20
2022-09-01T00:03:23.697Z,1.30
2022-09-01T00:04:23.703Z,1.30
2022-09-01T00:05:23.686Z,1.20
2022-09-01T00:06:23.659Z,1.30
2022-09-01T00:07:23.644Z,1.30
2022-09-01T00:08:23.640Z,1.20
2022-09-01T00:09:23.620Z,1.10
2022-09-01T00:10:23.607Z,1.30
2022-09-01T00:11:23.610Z,1.20
2022-09-01T00:12:23.586Z,1.20
2022-09-01T00:13:23.576Z,1.20
2022-09-01T00:14:29.573Z,1.40
2022-09-01T00:15:23.654Z,1.50
2022-09-01T00:16:23.536Z,1.50
2022-09-01T00:17:23.536Z,1.20
2022-09-01T00:18:23.509Z,1.10
2022-09-01T00:19:23.502Z,1.10
2022-09-01T00:20:23.491Z,1.10
2022-09-01T00:21:23.516Z,1.20
2022-09-01T00:22:23.459Z,1.10
2022-09-01T00:23:23.470Z,1.10
2022-09-01T00:24:23.432Z,1.20
2022-09-01T00:25:23.419Z,1.40
2022-09-01T00:26:23.405Z,1.30
2022-09-01T00:27:30.705Z,1.20
2022-09-01T00:28:23.392Z,1.20
2022-09-01T00:29:23.393Z,1.30
2022-09-01T00:30:23.366Z,1.30
2022-09-01T00:31:23.393Z,1.30
2022-09-01T00:32:23.330Z,1.30
2022-09-01T00:33:23.325Z,1.40
2022-09-01T00:34:23.307Z,1.10
2022-09-01T00:35:23.303Z,1.10
2022-09-01T00:36:23.281Z,1.20
2022-09-01T00:37:23.283Z,1.30
2022-09-01T00:38:23.264Z,1.30
2022-09-01T00:39:23.243Z,1.30
2022-09-01T00:40:23.264Z,1.20
2022-09-01T00:41:23.245Z,1.10
2022-09-01T00:42:23.208Z,1.20
2022-09-01T00:43:23.190Z,1.00
2022-09-01T00:44:23.183Z,1.30
2022-09-01T00:45:23.236Z,1.20
2022-09-01T00:46:23.231Z,1.10
2022-09-01T00:47:23.170Z,1.30
2022-09-01T00:48:23.135Z,1.20
2022-09-01T00:49:23.123Z,1.10
2022-09-01T00:50:23.109Z,1.20
2022-09-01T00:51:23.092Z,1.30
2022-09-01T00:52:23.083Z,1.00
2022-09-01T00:53:23.078Z,1.30
2022-09-01T00:54:23.051Z,1.30
2022-09-01T00:55:23.042Z,1.20
2022-09-01T00:56:23.031Z,1.10
2022-09-01T00:57:23.015Z,1.20
2022-09-01T00:58:23.167Z,1.20
2022-09-01T00:59:23.245Z,1.00
2022-09-01T01:00:22.980Z,1.20
2022-09-01T01:01:23.000Z,1.10
2022-09-01T01:02:23.048Z,1.10
2022-09-01T01:03:22.945Z,1.30
2022-09-01T01:04:22.926Z,1.30
2022-09-01T01:05:22.925Z,1.30
2022-09-01T01:06:22.904Z,1.10
2022-09-01T01:07:22.900Z,1.20
2022-09-01T01:08:22.877Z,1.30
2022-09-01T01:09:22.865Z,1.00
2022-09-01T01:10:22.859Z,1.40
2022-09-01T01:11:22.861Z,1.20
2022-09-01T01:12:22.830Z,1.10
2022-09-01T01:13:22.813Z,1.00
2022-09-01T01:14:22.805Z,1.00
2022-09-01T01:15:22.796Z,1.10
2022-09-01T01:16:22.795Z,1.10
2022-09-01T01:17:22.783Z,1.30
2022-09-01T01:18:23.184Z,1.20
2022-09-01T01:19:22.737Z,1.20
2022-09-01T01:20:22.726Z,1.20
2022-09-01T01:21:22.713Z,1.30
2022-09-01T01:22:22.700Z,1.10
2022-09-01T01:23:22.700Z,1.20
2022-09-01T01:24:22.678Z,1.00
2022-09-01T01:25:22.659Z,1.10
2022-09-01T01:26:22.651Z,1.00
2022-09-01T01:27:22.641Z,1.20
2022-09-01T01:28:22.748Z,1.10
2022-09-01T01:29:22.626Z,1.10
2022-09-01T01:30:22.607Z,1.20
2022-09-01T01:31:22.677Z,1.00
2022-09-01T01:32:22.584Z,1.10
2022-09-01T01:33:22.565Z,1.20
2022-09-01T01:34:22.547Z,1.20
2022-09-01T01:35:22.546Z,1.20
2022-09-01T01:36:22.532Z,1.30
2022-09-01T01:37:22.515Z,1.10
2022-09-01T01:38:22.503Z,1.60
2022-09-01T01:39:22.493Z,1.30
2022-09-01T01:40:22.550Z,1.20
2022-09-01T01:41:22.472Z,1.30
2022-09-01T01:42:22.449Z,1.10
2022-09-01T01:43:22.441Z,1.20
2022-09-01T01:44:22.424Z,1.40
2022-09-01T01:45:22.412Z,1.30
2022-09-01T01:46:22.711Z,1.20
2022-09-01T01:47:22.393Z,1.30
2022-09-01T01:48:22.374Z,1.40
2022-09-01T01:49:22.364Z,1.30
2022-09-01T01:50:22.349Z,1.20
2022-09-01T01:51:22.334Z,1.20
2022-09-01T01:52:26.130Z,1.00
2022-09-01T01:53:22.339Z,1.10
2022-09-01T01:54:22.303Z,1.20
2022-09-01T01:55:22.283Z,1.20
2022-09-01T01:56:22.278Z,1.00
2022-09-01T01:57:22.264Z,1.10
2022-09-01T01:58:22.403Z,1.30
2022-09-01T01:59:22.246Z,1.20
2022-09-01T02:00:27.063Z,1.20
2022-09-01T02:01:22.280Z,1.20
2022-09-01T02:02:22.251Z,1.20
2022-09-01T02:03:22.187Z,1.20
2022-09-01T02:04:22.177Z,1.20
2022-09-01T02:05:22.177Z,1.10
2022-09-01T02:06:22.154Z,1.30
2022-09-01T02:07:22.140Z,1.20
2022-09-01T02:08:22.128Z,1.30
2022-09-01T02:09:22.110Z,1.40
2022-09-01T02:10:22.103Z,1.00
2022-09-01T02:11:22.095Z,1.30
2022-09-01T02:12:22.090Z,1.10
2022-09-01T02:13:22.066Z,1.10
2022-09-01T02:14:22.052Z,1.30
2022-09-01T02:15:22.035Z,1.50
2022-09-01T02:16:22.096Z,1.40
2022-09-01T02:17:22.050Z,1.30
2022-09-01T02:18:22.270Z,1.20
2022-09-01T02:19:21.987Z,1.40
2022-09-01T02:20:21.977Z,1.30
2022-09-01T02:21:21.961Z,1.20
2022-09-01T02:22:21.955Z,1.40
2022-09-01T02:23:21.953Z,1.40
2022-09-01T02:24:21.931Z,1.20
2022-09-01T02:25:21.919Z,1.00
2022-09-01T02:26:21.906Z,1.40
2022-09-01T02:27:21.895Z,1.30
2022-09-01T02:28:21.880Z,1.20
2022-09-01T02:29:21.924Z,1.10
2022-09-01T02:30:21.930Z,1.20
2022-09-01T02:31:21.850Z,1.20
2022-09-01T02:32:21.839Z,1.20
2022-09-01T02:33:21.837Z,1.30
2022-09-01T02:34:21.805Z,1.30
2022-09-01T02:35:21.842Z,1.30
2022-09-01T02:36:21.781Z,1.20
2022-09-01T02:37:21.771Z,1.20
2022-09-01T02:38:21.756Z,1.30
2022-09-01T02:39:21.747Z,1.30
2022-09-01T02:40:21.798Z,1.40
2022-09-01T02:41:21.734Z,1.40
2022-09-01T02:42:21.705Z,1.20
2022-09-01T02:43:21.699Z,1.30
2022-09-01T02:44:21.678Z,1.40
2022-09-01T02:45:21.667Z,1.40
2022-09-01T02:46:21.675Z,1.30
2022-09-01T02:47:21.655Z,1.10
2022-09-01T02:48:21.714Z,1.20
2022-09-01T02:49:21.617Z,1.40
2022-09-01T02:50:21.609Z,1.50
2022-09-01T02:51:21.591Z,1.30
2022-09-01T02:52:21.588Z,1.30
2022-09-01T02:53:21.577Z,1.40
2022-09-01T02:54:21.561Z,1.40
2022-09-01T02:55:21.544Z,1.00
2022-09-01T02:56:21.527Z,1.30
2022-09-01T02:57:21.516Z,1.50
2022-09-01T02:58:24.837Z,1.20
2022-09-01T02:59:21.508Z,1.20
2022-09-01T03:00:21.484Z,1.10
2022-09-01T03:01:21.561Z,1.40
2022-09-01T03:02:21.456Z,1.30
2022-09-01T03:03:21.440Z,1.40
2022-09-01T03:04:21.455Z,1.50
2022-09-01T03:05:21.430Z,1.50
2022-09-01T03:06:21.403Z,1.50
2022-09-01T03:07:21.395Z,1.20
2022-09-01T03:08:21.437Z,1.40
2022-09-01T03:09:21.376Z,1.40
2022-09-01T03:10:21.358Z,1.30
2022-09-01T03:11:21.345Z,1.20
2022-09-01T03:12:21.330Z,1.30
2022-09-01T03:13:21.323Z,1.30
2022-09-01T03:14:21.302Z,1.30
2022-09-01T03:15:21.290Z,1.30
2022-09-01T03:16:21.336Z,1.30
2022-09-01T03:17:21.275Z,1.30
2022-09-01T03:18:21.509Z,1.40
2022-09-01T03:19:21.238Z,1.40
2022-09-01T03:20:21.234Z,1.30
2022-09-01T03:21:21.216Z,1.30
2022-09-01T03:22:21.200Z,1.30
2022-09-01T03:23:21.201Z,1.30
2022-09-01T03:24:21.176Z,1.10
2022-09-01T03:25:21.171Z,1.40
2022-09-01T03:26:21.164Z,1.60
2022-09-01T03:27:21.136Z,1.40
2022-09-01T03:28:21.275Z,1.20
2022-09-01T03:29:21.121Z,1.10
2022-09-01T03:30:21.100Z,1.50
2022-09-01T03:31:21.166Z,1.10
2022-09-01T03:32:21.022Z,1.10
2022-09-01T03:33:21.007Z,1.30
2022-09-01T03:34:21.057Z,1.20
2022-09-01T03:35:21.050Z,1.30
2022-09-01T03:36:21.027Z,1.30
2022-09-01T03:37:21.016Z,1.20
2022-09-01T03:38:21.158Z,1.40
2022-09-01T03:39:20.987Z,1.40
2022-09-01T03:40:21.037Z,1.40
2022-09-01T03:41:20.975Z,1.20
2022-09-01T03:42:20.946Z,1.40
2022-09-01T03:43:20.939Z,1.40
2022-09-01T03:44:20.929Z,1.30
2022-09-01T03:45:20.909Z,1.10
2022-09-01T03:46:20.899Z,1.20
2022-09-01T03:47:20.894Z,1.70
2022-09-01T03:48:20.959Z,1.30
2022-09-01T03:49:20.862Z,1.30
2022-09-01T03:50:20.847Z,1.10
2022-09-01T03:51:20.839Z,1.50
2022-09-01T03:52:20.826Z,1.20
2022-09-01T03:53:20.815Z,1.20
2022-09-01T03:54:20.799Z,1.30
2022-09-01T03:55:20.783Z,1.50
2022-09-01T03:56:20.773Z,1.20
2022-09-01T03:57:20.760Z,1.20
2022-09-01T03:58:20.882Z,1.10
2022-09-01T03:59:20.747Z,1.30
2022-09-01T04:00:20.721Z,1.00
2022-09-01T04:01:20.761Z,1.30
2022-09-01T04:02:20.717Z,1.20
2022-09-01T04:03:20.685Z,1.10
2022-09-01T04:04:20.681Z,1.40
2022-09-01T04:05:20.673Z,1.50
2022-09-01T04:06:20.661Z,1.30
2022-09-01T04:07:20.634Z,1.10
2022-09-01T04:08:20.828Z,1.30
2022-09-01T04:09:20.606Z,1.40
2022-09-01T04:10:20.594Z,1.30
2022-09-01T04:11:20.590Z,1.50
2022-09-01T04:12:20.571Z,1.40
2022-09-01T04:13:20.561Z,1.30
2022-09-01T04:14:20.544Z,1.20
2022-09-01T04:15:20.534Z,1.20
2022-09-01T04:16:20.537Z,1.40
2022-09-01T04:17:20.519Z,1.30
2022-09-01T04:18:20.853Z,1.40
2022-09-01T04:19:20.981Z,1.50
2022-09-01T04:20:20.961Z,1.30
2022-09-01T04:21:20.455Z,1.30
2022-09-01T04:22:20.392Z,1.30
2022-09-01T04:23:20.448Z,1.40
2022-09-01T04:24:20.436Z,1.30
2022-09-01T04:25:20.364Z,1.30
2022-09-01T04:26:20.349Z,1.30
2022-09-01T04:27:20.325Z,1.60
2022-09-01T04:28:20.580Z,1.40
2022-09-01T04:29:20.379Z,1.40
2022-09-01T04:30:20.304Z,1.40
2022-09-01T04:31:20.438Z,1.40
2022-09-01T04:32:20.269Z,1.30
2022-09-01T04:33:20.252Z,1.40
2022-09-01T04:34:20.237Z,1.50
2022-09-01T04:35:20.240Z,1.30
2022-09-01T04:36:20.218Z,1.50
2022-09-01T04:37:20.202Z,1.20
2022-09-01T04:38:20.436Z,1.30
2022-09-01T04:39:20.184Z,1.10
2022-09-01T04:40:20.227Z,1.30
2022-09-01T04:41:20.168Z,1.40
2022-09-01T04:42:20.143Z,1.40
2022-09-01T04:43:20.128Z,1.50
2022-09-01T04:44:20.124Z,1.40
2022-09-01T04:45:20.850Z,1.40
2022-09-01T04:46:20.153Z,1.60
2022-09-01T04:47:20.109Z,1.30
2022-09-01T04:48:20.259Z,1.40
2022-09-01T04:49:20.053Z,1.40
2022-09-01T04:50:20.037Z,1.50
2022-09-01T04:51:20.031Z,1.20
2022-09-01T04:52:20.020Z,1.30
2022-09-01T04:53:20.017Z,1.60
2022-09-01T04:54:19.993Z,1.40
2022-09-01T04:55:19.980Z,1.20
2022-09-01T04:56:19.970Z,1.30
2022-09-01T04:57:19.953Z,1.50
2022-09-01T04:58:19.967Z,1.30
2022-09-01T04:59:19.949Z,1.50
2022-09-01T05:00:19.917Z,1.40
2022-09-01T05:01:20.030Z,1.30
2022-09-01T05:02:19.931Z,1.10
2022-09-01T05:03:19.887Z,1.40
2022-09-01T05:04:19.877Z,1.40
2022-09-01T05:05:19.863Z,1.30
2022-09-01T05:06:19.848Z,1.60
2022-09-01T05:07:19.836Z,1.40
2022-09-01T05:08:23.589Z,1.60
2022-09-01T05:09:19.809Z,1.50
2022-09-01T05:10:19.796Z,1.40
2022-09-01T05:11:19.787Z,1.40
2022-09-01T05:12:19.770Z,1.30
2022-09-01T05:13:19.764Z,1.40
2022-09-01T05:14:19.748Z,1.30
2022-09-01T05:15:19.733Z,1.20
2022-09-01T05:16:24.190Z,1.40
2022-09-01T05:17:19.718Z,1.40
2022-09-01T05:18:19.807Z,1.20
2022-09-01T05:19:19.682Z,1.20
2022-09-01T05:20:19.671Z,1.30
2022-09-01T05:21:19.656Z,1.20
2022-09-01T05:22:19.643Z,1.60
2022-09-01T05:23:19.649Z,1.30
2022-09-01T05:24:19.619Z,1.10
2022-09-01T05:25:19.606Z,1.40
2022-09-01T05:26:19.593Z,1.40
2022-09-01T05:27:19.581Z,1.50
2022-09-01T05:28:19.834Z,1.30
2022-09-01T05:29:19.567Z,1.40
2022-09-01T05:30:19.567Z,1.40
2022-09-01T05:31:19.644Z,1.20
2022-09-01T05:32:19.517Z,1.30
2022-09-01T05:33:21.771Z,1.40
2022-09-01T05:34:19.491Z,1.50
2022-09-01T05:35:19.486Z,1.40
2022-09-01T05:36:19.471Z,1.40
2022-09-01T05:37:19.453Z,1.30
2022-09-01T05:38:19.602Z,1.40
2022-09-01T05:39:19.429Z,1.30
2022-09-01T05:40:19.447Z,1.50
2022-09-01T05:41:19.410Z,1.70
2022-09-01T05:42:19.385Z,1.60
2022-09-01T05:43:19.390Z,1.40
2022-09-01T05:44:19.368Z,1.50
2022-09-01T05:45:19.358Z,1.50
2022-09-01T05:46:19.403Z,1.30
2022-09-01T05:47:20.820Z,1.40
2022-09-01T05:48:19.430Z,1.30
2022-09-01T05:49:19.303Z,1.50
2022-09-01T05:50:19.290Z,1.40
2022-09-01T05:51:42.857Z,1.30
2022-09-01T05:52:19.267Z,1.40
2022-09-01T05:53:19.261Z,1.60
2022-09-01T05:54:19.247Z,1.40
2022-09-01T05:55:19.218Z,1.50
2022-09-01T05:56:19.225Z,1.30
2022-09-01T05:57:33.949Z,1.20
2022-09-01T05:58:19.436Z,1.30
2022-09-01T05:59:23.087Z,1.40
2022-09-01T06:00:19.161Z,1.60
2022-09-01T06:01:19.149Z,1.40
2022-09-01T06:02:19.216Z,1.60
2022-09-01T06:03:19.312Z,1.30
2022-09-01T06:04:19.119Z,1.40
2022-09-01T06:05:19.106Z,1.50
2022-09-01T06:06:19.091Z,1.30
2022-09-01T06:07:25.389Z,1.40
2022-09-01T06:08:19.064Z,1.50
2022-09-01T06:09:19.050Z,1.50
2022-09-01T06:10:19.034Z,1.50
2022-09-01T06:11:19.048Z,1.50
2022-09-01T06:12:19.155Z,1.80
2022-09-01T06:13:19.227Z,1.50
2022-09-01T06:14:18.989Z,1.80
2022-09-01T06:15:18.979Z,1.80
2022-09-01T06:16:19.057Z,1.90
2022-09-01T06:17:18.957Z,1.70
2022-09-01T06:18:18.937Z,1.50
2022-09-01T06:19:18.922Z,1.50
2022-09-01T06:20:18.911Z,1.50
2022-09-01T06:21:18.897Z,1.60
2022-09-01T06:22:18.889Z,1.60
2022-09-01T06:23:19.110Z,1.80
2022-09-01T06:24:18.861Z,1.60
2022-09-01T06:25:18.848Z,1.50
2022-09-01T06:26:18.839Z,1.60
2022-09-01T06:27:18.818Z,1.70
2022-09-01T06:28:18.815Z,1.70
2022-09-01T06:29:18.807Z,1.70
2022-09-01T06:30:23.495Z,1.70
2022-09-01T06:31:18.814Z,1.40
2022-09-01T06:32:18.759Z,1.60
2022-09-01T06:33:18.807Z,1.70
2022-09-01T06:34:18.735Z,1.60
2022-09-01T06:35:18.734Z,1.50
2022-09-01T06:36:18.766Z,1.50
2022-09-01T06:37:18.693Z,1.70
2022-09-01T06:38:18.677Z,1.70
2022-09-01T06:39:18.675Z,1.60
2022-09-01T06:40:18.780Z,1.60
2022-09-01T06:41:18.674Z,1.60
2022-09-01T06:42:18.627Z,1.70
2022-09-01T06:43:19.555Z,1.50
2022-09-01T06:44:18.611Z,1.60
2022-09-01T06:45:18.597Z,1.70
2022-09-01T06:46:18.636Z,1.50
2022-09-01T06:47:18.586Z,1.60
2022-09-01T06:48:18.566Z,1.50
2022-09-01T06:49:18.551Z,1.70
2022-09-01T06:51:14.844Z,1.60
2022-09-01T06:51:22.023Z,1.60
2022-09-01T06:52:18.507Z,1.50
2022-09-01T06:53:34.350Z,1.30
2022-09-01T06:54:20.960Z,1.50
2022-09-01T06:55:18.468Z,1.50
2022-09-01T06:56:18.460Z,1.70
2022-09-01T06:58:18.452Z,1.80
2022-09-01T06:59:18.435Z,2.00
2022-09-01T07:00:19.232Z,2.00
2022-09-01T07:01:18.438Z,1.80
2022-09-01T07:02:18.496Z,1.70
2022-09-01T07:03:18.386Z,1.80
2022-09-01T07:04:18.361Z,1.70
2022-09-01T07:08:18.389Z,1.50
2022-09-01T07:09:19.936Z,1.60
2022-09-01T07:42:31.249Z,1.70
2022-09-01T07:43:06.500Z,1.80
2022-09-01T07:43:11.638Z,1.60
2022-09-01T07:44:11.622Z,1.40
2022-09-01T07:45:27.840Z,1.40
2022-09-01T07:47:20.216Z,1.60
2022-09-01T07:48:11.663Z,1.50
2022-09-01T07:50:25.402Z,1.40
2022-09-01T07:52:11.525Z,1.60
2022-09-01T07:53:11.511Z,1.40
2022-09-01T07:54:11.505Z,1.60
2022-09-01T07:55:11.491Z,1.70
2022-09-01T07:56:11.484Z,1.60
2022-09-01T07:57:11.481Z,1.70
2022-09-01T07:58:11.448Z,1.30
2022-09-01T07:59:15.321Z,1.50
2022-09-01T08:00:11.436Z,1.50
2022-09-01T08:01:11.422Z,1.30
2022-09-01T08:02:12.937Z,1.40
2022-09-01T08:03:11.449Z,1.30
2022-09-01T08:04:11.366Z,1.40
2022-09-01T08:05:11.357Z,1.40
2022-09-01T08:06:11.367Z,1.40
2022-09-01T08:07:15.455Z,1.40
2022-09-01T08:08:18.861Z,1.40
2022-09-01T08:09:11.866Z,1.40
2022-09-01T08:10:11.305Z,1.50
2022-09-01T08:11:11.284Z,1.50
2022-09-01T08:12:11.275Z,1.60
2022-09-01T08:13:15.420Z,1.40
2022-09-01T08:14:11.240Z,1.30
2022-09-01T08:15:41.539Z,1.40
2022-09-01T08:16:18.715Z,1.40
2022-09-01T08:17:34.085Z,1.50
2022-09-01T08:18:14.075Z,1.40
2022-09-01T08:19:18.376Z,1.50
2022-09-01T08:20:11.168Z,1.30
2022-09-01T08:21:11.158Z,1.20
2022-09-01T08:22:11.141Z,1.50
2022-09-01T08:23:11.127Z,1.30
2022-09-01T08:24:11.128Z,1.50
2022-09-01T08:25:11.104Z,1.40
2022-09-01T08:26:11.091Z,1.30
2022-09-01T08:27:11.077Z,1.30
2022-09-01T08:28:11.065Z,1.20
2022-09-01T08:29:11.051Z,1.40
2022-09-01T08:30:11.050Z,1.20
2022-09-01T08:31:11.426Z,1.40
2022-09-01T08:32:11.018Z,1.30
2022-09-01T08:33:11.100Z,1.30
2022-09-01T08:34:10.991Z,1.30
2022-09-01T08:35:10.987Z,1.20
2022-09-01T08:36:10.975Z,1.30
2022-09-01T08:37:10.954Z,1.20
2022-09-01T08:38:10.939Z,1.50
2022-09-01T08:39:10.933Z,1.30
2022-09-01T08:40:10.961Z,1.30
2022-09-01T08:41:11.094Z,1.20
2022-09-01T08:42:10.908Z,1.40
2022-09-01T08:43:15.145Z,1.40
2022-09-01T08:44:10.864Z,1.70
2022-09-01T08:45:10.852Z,1.80
2022-09-01T08:46:10.879Z,1.20
2022-09-01T08:47:13.002Z,1.30
2022-09-01T08:49:27.356Z,1.20
2022-09-01T08:50:10.801Z,1.40
2022-09-01T08:51:15.034Z,1.40
2022-09-01T08:52:10.770Z,1.60
2022-09-01T08:53:10.766Z,1.70
2022-09-01T08:54:10.771Z,1.70
2022-09-01T08:55:10.726Z,1.80
2022-09-01T08:56:10.713Z,1.70
2022-09-01T08:57:10.705Z,1.50
2022-09-01T08:58:10.689Z,1.50
2022-09-01T08:59:10.687Z,1.60
2022-09-01T09:00:10.684Z,1.60
2022-09-01T09:01:10.698Z,1.40
2022-09-01T09:02:10.649Z,1.80
2022-09-01T09:03:10.723Z,1.40
2022-09-01T09:04:10.615Z,1.50
2022-09-01T09:05:17.782Z,1.60
2022-09-01T09:06:10.615Z,1.80
2022-09-01T09:07:10.580Z,1.60
2022-09-01T09:08:10.570Z,2.00
2022-09-01T09:09:10.570Z,1.80
2022-09-01T09:10:10.537Z,2.00
2022-09-01T09:11:10.525Z,2.00
2022-09-01T09:12:10.530Z,2.00
2022-09-01T09:13:10.540Z,1.80
2022-09-01T09:14:10.493Z,1.70
2022-09-01T09:15:10.480Z,1.60
2022-09-01T09:16:10.513Z,1.70
2022-09-01T09:17:10.451Z,1.50
2022-09-01T09:18:20.263Z,1.60
2022-09-01T09:19:10.505Z,1.80
2022-09-01T09:20:10.415Z,1.70
2022-09-01T09:21:10.401Z,1.70
2022-09-01T09:22:11.142Z,1.50
2022-09-01T09:23:10.595Z,1.60
2022-09-01T09:24:10.383Z,1.60
2022-09-01T09:25:10.352Z,1.20
2022-09-01T09:26:10.941Z,1.30
2022-09-01T09:27:11.177Z,1.30
2022-09-01T09:28:10.313Z,1.30
2022-09-01T09:29:10.301Z,1.50
2022-09-01T09:30:11.814Z,1.30
2022-09-01T09:31:10.318Z,1.20
2022-09-01T09:33:44.211Z,1.20
2022-09-01T09:34:10.243Z,1.40
2022-09-01T09:35:10.224Z,1.30
2022-09-01T09:36:10.227Z,1.30
2022-09-01T09:37:10.203Z,1.50
2022-09-01T09:38:10.190Z,1.40
2022-09-01T09:39:10.174Z,1.10
2022-09-01T09:40:10.515Z,1.20
2022-09-01T09:41:19.984Z,1.20
2022-09-01T09:42:10.156Z,1.20
2022-09-01T09:43:10.142Z,1.20
2022-09-01T09:44:11.445Z,1.10
2022-09-01T09:45:10.098Z,1.10
2022-09-01T09:46:23.313Z,1.20
2022-09-01T09:47:22.045Z,1.20
2022-09-01T09:48:10.984Z,1.20
2022-09-01T09:49:10.050Z,1.30
2022-09-01T09:50:10.048Z,1.20
2022-09-01T09:51:10.369Z,1.30
2022-09-01T09:52:10.080Z,1.30
2022-09-01T09:53:10.010Z,1.10
2022-09-01T09:54:10.001Z,1.30
2022-09-01T09:55:09.979Z,1.00
2022-09-01T09:56:09.964Z,1.10
2022-09-01T09:57:09.955Z,1.20
2022-09-01T09:58:09.935Z,1.10
2022-09-01T09:59:09.924Z,1.20
2022-09-01T10:00:11.264Z,1.10
2022-09-01T10:01:09.920Z,1.20
2022-09-01T10:02:09.882Z,1.20
2022-09-01T10:03:11.257Z,1.10
2022-09-01T10:04:09.970Z,1.20
2022-09-01T10:05:09.862Z,1.30
2022-09-01T10:06:09.865Z,1.20
2022-09-01T10:07:09.829Z,1.30
2022-09-01T10:08:09.828Z,1.20
2022-09-01T10:09:09.806Z,1.20
2022-09-01T10:10:09.786Z,1.30
2022-09-01T10:11:09.771Z,1.20
2022-09-01T10:12:09.773Z,1.20
2022-09-01T10:13:09.776Z,1.30
2022-09-01T10:14:09.734Z,1.20
2022-09-01T10:15:12.702Z,1.20
2022-09-01T10:16:11.280Z,1.40
2022-09-01T10:17:09.796Z,1.30
2022-09-01T10:19:12.734Z,1.20
2022-09-01T10:20:11.425Z,1.10
2022-09-01T10:21:09.655Z,1.10
2022-09-01T10:22:09.637Z,1.30
2022-09-01T10:23:15.340Z,1.20
2022-09-01T10:24:17.747Z,1.10
2022-09-01T10:25:10.228Z,1.20
2022-09-01T10:26:09.769Z,1.10
2022-09-01T10:27:14.269Z,1.10
2022-09-01T10:28:09.564Z,1.10
2022-09-01T10:29:12.558Z,1.30
2022-09-01T10:30:13.663Z,1.30
2022-09-01T10:31:09.590Z,1.00
2022-09-01T10:32:31.476Z,1.10
2022-09-01T10:33:19.196Z,1.20
2022-09-01T10:34:09.498Z,1.20
2022-09-01T10:35:09.468Z,1.20
2022-09-01T10:36:09.485Z,1.20
2022-09-01T10:37:11.193Z,1.10
2022-09-01T10:38:11.128Z,1.30
2022-09-01T10:39:09.419Z,1.10
2022-09-01T10:40:09.562Z,1.20
2022-09-01T10:41:14.182Z,1.10
2022-09-01T10:42:09.406Z,1.00
2022-09-01T10:43:12.493Z,1.30
2022-09-01T10:44:09.366Z,1.40
2022-09-01T10:45:09.341Z,1.50
2022-09-01T10:46:15.215Z,1.30
2022-09-01T10:47:15.014Z,1.20
2022-09-01T10:48:13.304Z,1.40
2022-09-01T10:49:09.550Z,1.30
2022-09-01T10:50:09.989Z,1.10
2022-09-01T10:51:09.286Z,1.20
2022-09-01T10:52:13.219Z,1.30
2022-09-01T10:53:09.244Z,1.00
2022-09-01T10:54:09.257Z,1.20
2022-09-01T10:55:09.218Z,1.40
2022-09-01T10:56:20.023Z,1.30
2022-09-01T10:57:12.019Z,1.30
2022-09-01T10:58:09.434Z,1.30
2022-09-01T10:59:40.112Z,1.10
2022-09-01T11:00:34.791Z,1.10
2022-09-01T11:01:15.640Z,1.20
2022-09-01T11:02:27.014Z,1.20
2022-09-01T11:04:09.252Z,1.30
2022-09-01T11:05:09.242Z,1.20
2022-09-01T11:06:13.318Z,1.20
2022-09-01T11:07:12.486Z,1.10
2022-09-01T11:08:16.215Z,1.20
2022-09-01T11:09:09.047Z,1.10
2022-09-01T11:10:11.780Z,1.30
2022-09-01T11:11:09.026Z,1.30
2022-09-01T11:12:09.004Z,1.10
2022-09-01T11:13:08.992Z,1.30
2022-09-01T11:14:08.982Z,1.20
2022-09-01T11:15:08.968Z,1.40
2022-09-01T11:16:10.143Z,1.30
2022-09-01T11:17:08.987Z,1.20
2022-09-01T11:18:08.943Z,1.10
2022-09-01T11:19:13.983Z,1.30
2022-09-01T11:20:08.910Z,1.20
2022-09-01T11:21:08.894Z,1.20
2022-09-01T11:22:08.900Z,1.00
2022-09-01T11:23:08.946Z,1.20
2022-09-01T11:24:08.853Z,1.10
2022-09-01T11:25:11.014Z,1.20
2022-09-01T11:26:24.206Z,1.40
2022-09-01T11:27:08.824Z,1.30
2022-09-01T11:28:08.804Z,1.40
2022-09-01T11:29:08.843Z,1.20
2022-09-01T11:30:08.779Z,1.30
2022-09-01T11:31:08.996Z,1.10
2022-09-01T11:32:08.875Z,1.40
2022-09-01T11:33:08.745Z,1.60
2022-09-01T11:34:08.736Z,1.30
2022-09-01T11:35:08.747Z,1.50
2022-09-01T11:36:08.704Z,1.40
2022-09-01T11:37:08.699Z,1.20
2022-09-01T11:38:08.682Z,1.20
2022-09-01T11:39:08.673Z,1.20
2022-09-01T11:40:08.743Z,1.50
2022-09-01T11:41:08.651Z,1.40
2022-09-01T11:42:08.631Z,1.60
2022-09-01T11:43:12.636Z,1.40
2022-09-01T11:44:08.611Z,1.30
2022-09-01T11:45:08.598Z,1.30
2022-09-01T11:46:08.621Z,1.50
2022-09-01T11:47:12.115Z,1.30
2022-09-01T11:48:08.563Z,1.20
2022-09-01T11:49:08.548Z,1.20
2022-09-01T11:50:08.542Z,1.40
2022-09-01T11:51:08.525Z,1.40
2022-09-01T11:52:08.517Z,1.20
2022-09-01T11:53:08.526Z,1.40
2022-09-01T11:54:08.481Z,1.40
2022-09-01T11:55:08.544Z,1.30
2022-09-01T11:56:08.464Z,1.50
2022-09-01T11:57:08.445Z,1.40
2022-09-01T11:58:08.433Z,1.50
2022-09-01T11:59:08.443Z,1.40
2022-09-01T12:00:08.413Z,1.40
2022-09-01T12:01:08.396Z,1.30
2022-09-01T12:02:08.516Z,1.20
2022-09-01T12:03:08.483Z,1.40
2022-09-01T12:04:08.357Z,1.20
2022-09-01T12:05:08.365Z,1.30
2022-09-01T12:06:08.343Z,1.10
2022-09-01T12:07:10.750Z,1.00
2022-09-01T12:08:08.308Z,1.30
2022-09-01T12:09:08.293Z,1.30
2022-09-01T12:10:08.282Z,1.20
2022-09-01T12:11:08.290Z,1.40
2022-09-01T12:12:08.259Z,1.50
2022-09-01T12:13:08.249Z,1.30
2022-09-01T12:14:11.421Z,1.50
2022-09-01T12:15:08.227Z,1.40
2022-09-01T12:16:17.816Z,1.40
2022-09-01T12:17:08.263Z,1.30
2022-09-01T12:18:08.185Z,1.50
2022-09-01T12:19:08.171Z,1.40
2022-09-01T12:20:08.159Z,1.20
2022-09-01T12:21:08.155Z,1.30
2022-09-01T12:22:08.134Z,1.40
2022-09-01T12:23:08.185Z,1.30
2022-09-01T12:24:08.115Z,1.40
2022-09-01T12:25:08.101Z,1.40
2022-09-01T12:26:08.093Z,1.30
2022-09-01T12:27:08.074Z,1.40
2022-09-01T12:28:08.066Z,1.30
2022-09-01T12:29:08.071Z,1.20
2022-09-01T12:30:08.038Z,1.20
2022-09-01T12:31:08.020Z,1.60
2022-09-01T12:32:08.088Z,1.30
2022-09-01T12:33:24.190Z,1.30
2022-09-01T12:34:07.997Z,1.30
2022-09-01T12:35:11.495Z,1.40
2022-09-01T12:36:07.959Z,1.10
2022-09-01T12:37:07.959Z,1.10
2022-09-01T12:38:09.682Z,1.40
2022-09-01T12:39:07.929Z,1.40
2022-09-01T12:40:08.058Z,1.30
2022-09-01T12:41:08.490Z,1.40
2022-09-01T12:42:07.892Z,1.40
2022-09-01T12:43:07.953Z,1.40
2022-09-01T12:44:07.861Z,1.30
2022-09-01T12:45:09.003Z,1.40
2022-09-01T12:46:07.864Z,1.60
2022-09-01T12:47:07.843Z,1.10
2022-09-01T12:48:07.816Z,1.30
2022-09-01T12:49:07.832Z,1.50
2022-09-01T12:50:07.797Z,1.20
2022-09-01T12:51:09.417Z,1.40
2022-09-01T12:52:07.767Z,1.50
2022-09-01T12:53:08.464Z,1.30
2022-09-01T12:54:09.371Z,1.20
2022-09-01T12:55:07.729Z,1.50
2022-09-01T12:56:07.715Z,1.30
2022-09-01T12:57:07.705Z,1.10
2022-09-01T12:58:07.696Z,1.40
2022-09-01T12:59:11.934Z,1.40
2022-09-01T13:00:07.672Z,1.30
2022-09-01T13:01:16.585Z,1.20
2022-09-01T13:02:07.900Z,1.40
2022-09-01T13:03:08.243Z,1.40
2022-09-01T13:04:07.617Z,1.40
2022-09-01T13:05:07.633Z,1.30
2022-09-01T13:06:08.010Z,1.30
2022-09-01T13:07:07.740Z,1.10
2022-09-01T13:08:07.741Z,1.00
2022-09-01T13:09:07.565Z,1.20
2022-09-01T13:10:08.063Z,1.10
2022-09-01T13:11:07.540Z,1.30
2022-09-01T13:12:08.048Z,1.50
2022-09-01T13:13:07.508Z,1.30
2022-09-01T13:14:07.499Z,1.30
2022-09-01T13:15:07.528Z,1.20
2022-09-01T13:16:07.504Z,1.20
2022-09-01T13:17:14.043Z,1.20
2022-09-01T13:18:07.457Z,1.20
2022-09-01T13:19:11.237Z,1.30
2022-09-01T13:20:07.424Z,1.30
2022-09-01T13:21:07.412Z,1.30
2022-09-01T13:22:07.414Z,1.30
2022-09-01T13:23:07.399Z,1.60
2022-09-01T13:24:07.456Z,1.40
2022-09-01T13:25:07.364Z,1.60
2022-09-01T13:26:07.359Z,1.50
2022-09-01T13:27:22.940Z,1.70
2022-09-01T13:28:07.346Z,1.70
2022-09-01T13:29:07.337Z,1.50
2022-09-01T13:30:07.301Z,1.70
2022-09-01T13:32:22.992Z,1.60
2022-09-01T13:33:23.238Z,1.40
2022-09-01T13:34:20.511Z,1.60
2022-09-01T13:35:07.840Z,1.60
2022-09-01T13:36:42.425Z,1.70
2022-09-01T13:37:07.240Z,1.70
2022-09-01T13:38:07.210Z,1.60
2022-09-01T13:39:07.190Z,1.40
2022-09-01T13:40:07.234Z,1.60
2022-09-01T13:41:07.191Z,1.50
2022-09-01T13:42:07.158Z,1.60
2022-09-01T13:43:07.142Z,1.60
2022-09-01T13:44:07.130Z,1.70
2022-09-01T13:45:07.455Z,1.50
2022-09-01T13:46:08.186Z,1.60
2022-09-01T13:48:22.364Z,1.60
2022-09-01T13:49:42.157Z,1.40
2022-09-01T13:50:09.911Z,1.40
2022-09-01T13:51:16.608Z,1.60
2022-09-01T13:52:07.038Z,1.40
2022-09-01T13:53:07.030Z,1.10
2022-09-01T13:54:07.039Z,1.50
2022-09-01T13:55:06.995Z,1.40
2022-09-01T13:56:06.988Z,1.30
2022-09-01T13:57:06.972Z,1.40
2022-09-01T13:58:06.956Z,1.40
2022-09-01T13:59:06.953Z,1.30
2022-09-01T14:00:06.938Z,1.30
2022-09-01T14:01:06.988Z,1.50
2022-09-01T14:02:06.911Z,1.30